Time;durP1;ratioP1;P1;durP2;ratioP2;P2;SDS_P1;SDS_P2;PMS_P1;PMS_P2;Temp;Humidity;BMP_temperature;BMP_pressure;BME280_temperature;BME280_humidity;BME280_pressure;Samples;Min_cycle;Max_cycle;Signal;HPM_P1;HPM_P2
2024/03/30 06:01:53;;;;;;;;;;;;;;;;;;5320935;23;20031;-46
2024/03/30 06:04:19;;;;;;;;;;;;;;;;;;4991008;28;19965;-50
2024/03/30 06:06:45;;;;;;;;;;;;;;;;;;4991054;28;19936;-49
2024/03/30 06:09:11;;;;;;;;;;;;;;;;;;4991118;28;19917;-45
2024/03/30 06:11:36;;;;;;;;;;;;;;;;;;4991003;28;19917;-45
2024/03/30 06:14:02;;;;;;;;;;;;;;;;;;4991082;28;20346;-46
2024/03/30 06:16:28;;;;;;;;;;;;;;;;;;4991545;28;19937;-48
2024/03/30 06:18:54;;;;;;;;;;;;;;;;;;4989097;28;19917;-46
2024/03/30 06:21:20;;;;;;;;;;;;;;;;;;4991912;28;19977;-44
2024/03/30 06:23:47;;;;;;;;;;;;;;;;;;4991576;28;19959;-45
2024/03/30 06:26:13;;;;;;;;;;;;;;;;;;4991872;28;20376;-45
2024/03/30 06:28:39;;;;;;;;;;;;;;;;;;4991668;28;20000;-48
2024/03/30 06:31:05;;;;;;;;;;;;;;;;;;4992007;28;19910;-45
2024/03/30 06:33:31;;;;;;;;;;;;;;;;;;4992027;28;19910;-49
2024/03/30 06:35:56;;;;;;;;;;;;;;;;;;4991730;28;19913;-47
2024/03/30 06:38:22;;;;;;;;;;;;;;;;;;4991458;28;20295;-48
2024/03/30 06:43:42;;;;;;;;;;;;;;;;;;4991759;28;19928;-50
2024/03/30 06:46:08;;;;;;;;;;;;;;;;;;4992116;28;19910;-49
2024/03/30 06:48:34;;;;;;;;;;;;;;;;;;4995268;28;19910;-49
2024/03/30 06:51:00;;;;;;;;;;;;;;;;;;4978028;28;20294;-47
2024/03/30 06:53:26;;;;;;;;;;;;;;;;;;4995056;28;19910;-49
2024/03/30 06:55:51;;;;;;;;;;;;;;;;;;4994892;28;20403;-45
2024/03/30 06:58:17;;;;;;;;;;;;;;;;;;4994937;28;19913;-46
2024/03/30 07:00:43;;;;;;;;;;;;;;;;;;4995087;28;19918;-48
2024/03/30 07:03:09;;;;;;;;;;;;;;;;;;4994917;28;19921;-45
2024/03/30 07:05:35;;;;;;;;;;;;;;;;;;4995168;28;20302;-48
2024/03/30 07:08:01;;;;;;;;;;;;;;;;;;4994995;28;20020;-47
2024/03/30 07:10:27;;;;;;;;;;;;;;;;;;4994889;28;19910;-45
2024/03/30 07:12:54;;;;;;;;;;;;;;;;;;4993107;28;19914;-46
2024/03/30 07:15:20;;;;;;;;;;;;;;;;;;4993181;28;19914;-47
2024/03/30 07:17:46;;;;;;;;;;;;;;;;;;4993022;28;19914;-49
2024/03/30 07:20:12;;;;;;;;;;;;;;;;;;4994690;28;19913;-47
2024/03/30 07:22:38;;;;;;;;;;;;;;;;;;4994022;28;19918;-46
2024/03/30 07:25:04;;;;;;;;;;;;;;;;;;4976063;28;19914;-51
2024/03/30 07:27:30;;;;;;;;;;;;;;;;;;4984341;28;19913;-47
2024/03/30 07:29:56;;;;;;;;;;;;;;;;;;4975446;28;20300;-47
2024/03/30 07:32:22;;;;;;;;;;;;;;;;;;4993156;28;19960;-47
2024/03/30 07:34:47;;;;;;;;;;;;;;;;;;4992458;28;20446;-52
2024/03/30 07:37:13;;;;;;;;;;;;;;;;;;4994372;28;19917;-48
2024/03/30 07:39:39;;;;;;;;;;;;;;;;;;4988192;28;19914;-47
2024/03/30 07:42:05;;;;;;;;;;;;;;;;;;4975453;28;20395;-48
2024/03/30 07:44:32;;;;;;;;;;;;;;;;;;4987433;28;19920;-49
2024/03/30 07:46:58;;;;;;;;;;;;;;;;;;4993880;28;19918;-50
2024/03/30 07:49:24;;;;;;;;;;;;;;;;;;4986867;28;19955;-49
2024/03/30 07:51:50;;;;;;;;;;;;;;;;;;4972598;28;19914;-48
2024/03/30 07:54:16;;;;;;;;;;;;;;;;;;4972256;28;20004;-46
2024/03/30 07:56:42;;;;;;;;;;;;;;;;;;4973405;28;20406;-46
2024/03/30 07:59:08;;;;;;;;;;;;;;;;;;4972136;28;19961;-48
2024/03/30 08:01:34;;;;;;;;;;;;;;;;;;4973473;28;20352;-48
2024/03/30 08:04:00;;;;;;;;;;;;;;;;;;4972674;28;20307;-47
2024/03/30 08:06:26;;;;;;;;;;;;;;;;;;4972819;28;19920;-48
2024/03/30 08:08:52;;;;;;;;;;;;;;;;;;4972049;28;19918;-46
2024/03/30 08:11:18;;;;;;;;;;;;;;;;;;4971837;28;20447;-46
2024/03/30 08:13:44;;;;;;;;;;;;;;;;;;4972656;28;20034;-47
2024/03/30 08:16:09;;;;;;;;;;;;;;;;;;4972714;28;19957;-48
2024/03/30 08:18:35;;;;;;;;;;;;;;;;;;4965574;28;19946;-50
2024/03/30 08:21:01;;;;;;;;;;;;;;;;;;4972715;28;19957;-51
2024/03/30 08:23:27;;;;;;;;;;;;;;;;;;4971765;28;20300;-47
2024/03/30 08:25:53;;;;;;;;;;;;;;;;;;4970612;28;19915;-50
2024/03/30 08:28:19;;;;;;;;;;;;;;;;;;4971266;28;19992;-49
2024/03/30 08:30:45;;;;;;;;;;;;;;;;;;4955569;28;19914;-46
2024/03/30 08:33:11;;;;;;;;;;;;;;;;;;4971384;28;19915;-49
2024/03/30 08:35:37;;;;;;;;;;;;;;;;;;4955861;28;19914;-46
2024/03/30 08:38:02;;;;;;;;;;;;;;;;;;4969550;28;19949;-44
2024/03/30 08:40:28;;;;;;;;;;;;;;;;;;4974223;28;19984;-46
2024/03/30 08:42:54;;;;;;;;;;;;;;;;;;4976220;28;19922;-46
2024/03/30 08:45:20;;;;;;;;;;;;;;;;;;4971653;28;19935;-46
2024/03/30 08:47:46;;;;;;;;;;;;;;;;;;4971477;28;19921;-45
2024/03/30 08:50:12;;;;;;;;;;;;;;;;;;4971452;28;20036;-44
2024/03/30 08:52:38;;;;;;;;;;;;;;;;;;4973778;28;20386;-42
2024/03/30 08:55:04;;;;;;;;;;;;;;;;;;4959386;28;19920;-43
2024/03/30 08:57:30;;;;;;;;;;;;;;;;;;4992812;28;19914;-42
2024/03/30 08:59:56;;;;;;;;;;;;;;;;;;4975224;28;19949;-46
2024/03/30 09:02:21;;;;;;;;;;;;;;;;;;4989546;28;19922;-43
2024/03/30 09:04:47;;;;;;;;;;;;;;;;;;4981204;28;20351;-45
2024/03/30 09:07:13;;;;;;;;;;;;;;;;;;4992601;28;19910;-43
2024/03/30 09:09:39;;;;;;;;;;;;;;;;;;4992736;28;19910;-44
2024/03/30 09:12:05;;;;;;;;;;;;;;;;;;4992649;28;19910;-45
2024/03/30 09:14:31;;;;;;;;;;;;;;;;;;4985778;28;20316;-43
2024/03/30 09:16:58;;;;;;;;;;;;;;;;;;4973184;28;20346;-42
2024/03/30 09:19:25;;;;;;;;;;;;;;;;;;4973332;28;20288;-42
2024/03/30 09:21:51;;;;;;;;;;;;;;;;;;4972783;28;19921;-45
2024/03/30 09:24:17;;;;;;;;;;;;;;;;;;4989757;28;20000;-47
2024/03/30 09:26:43;;;;;;;;;;;;;;;;;;4992358;28;19943;-46
2024/03/30 09:29:09;;;;;;;;;;;;;;;;;;4992400;28;20371;-44
2024/03/30 09:31:36;;;;;;;;;;;;;;;;;;4978665;28;19911;-47
2024/03/30 09:34:02;;;;;;;;;;;;;;;;;;4972243;28;19983;-46
2024/03/30 09:36:27;;;;;;;;;;;;;;;;;;4972158;28;20411;-45
2024/03/30 09:38:53;;;;;;;;;;;;;;;;;;4971994;28;19910;-45
2024/03/30 09:41:19;;;;;;;;;;;;;;;;;;4971828;28;19906;-46
2024/03/30 09:43:45;;;;;;;;;;;;;;;;;;4971968;28;19957;-44
2024/03/30 09:46:11;;;;;;;;;;;;;;;;;;4971991;28;19911;-42
2024/03/30 09:48:37;;;;;;;;;;;;;;;;;;4954588;28;19910;-43
2024/03/30 09:51:03;;;;;;;;;;;;;;;;;;4971821;28;19910;-46
2024/03/30 09:53:29;;;;;;;;;;;;;;;;;;4971870;28;19957;-43
2024/03/30 09:55:55;;;;;;;;;;;;;;;;;;4971653;28;19956;-45
2024/03/30 09:58:21;;;;;;;;;;;;;;;;;;4971675;28;20306;-45
2024/03/30 10:00:47;;;;;;;;;;;;;;;;;;4971552;28;20009;-47
2024/03/30 10:03:13;;;;;;;;;;;;;;;;;;4972037;28;20012;-44
2024/03/30 10:05:39;;;;;;;;;;;;;;;;;;4971707;28;20347;-45
2024/03/30 10:08:05;;;;;;;;;;;;;;;;;;4971695;28;19914;-45
2024/03/30 10:10:31;;;;;;;;;;;;;;;;;;4971685;28;20304;-45
2024/03/30 10:12:57;;;;;;;;;;;;;;;;;;4971735;28;19997;-49
2024/03/30 10:15:22;;;;;;;;;;;;;;;;;;4971598;28;20423;-48
2024/03/30 10:17:48;;;;;;;;;;;;;;;;;;4954010;28;20018;-45
2024/03/30 10:20:14;;;;;;;;;;;;;;;;;;4971874;28;19957;-44
2024/03/30 10:22:40;;;;;;;;;;;;;;;;;;4974404;28;19920;-46
2024/03/30 10:25:06;;;;;;;;;;;;;;;;;;4975552;28;19921;-47
2024/03/30 10:27:32;;;;;;;;;;;;;;;;;;4975156;28;20352;-45
2024/03/30 10:29:58;;;;;;;;;;;;;;;;;;4975223;28;19917;-43
2024/03/30 10:32:24;;;;;;;;;;;;;;;;;;4977153;28;19923;-44
2024/03/30 10:34:49;;;;;;;;;;;;;;;;;;4995547;28;19964;-47
2024/03/30 10:37:15;;;;;;;;;;;;;;;;;;4995511;28;19963;-43
2024/03/30 10:39:41;;;;;;;;;;;;;;;;;;4995618;28;20009;-44
2024/03/30 10:42:07;;;;;;;;;;;;;;;;;;4993806;28;20391;-43
2024/03/30 10:44:33;;;;;;;;;;;;;;;;;;4994989;28;19914;-42
2024/03/30 10:46:59;;;;;;;;;;;;;;;;;;4994229;28;19910;-45
2024/03/30 10:49:25;;;;;;;;;;;;;;;;;;4982674;28;19914;-43
2024/03/30 10:51:51;;;;;;;;;;;;;;;;;;4993269;28;19957;-42
2024/03/30 10:54:19;;;;;;;;;;;;;;;;;;4987691;28;19914;-40
2024/03/30 10:56:45;;;;;;;;;;;;;;;;;;4990257;28;19965;-42
2024/03/30 10:59:11;;;;;;;;;;;;;;;;;;4995024;28;19913;-41
2024/03/30 11:01:36;;;;;;;;;;;;;;;;;;4994803;28;19921;-42
2024/03/30 11:04:02;;;;;;;;;;;;;;;;;;4993259;28;20005;-40
2024/03/30 11:06:28;;;;;;;;;;;;;;;;;;4992266;28;20012;-42
2024/03/30 11:08:54;;;;;;;;;;;;;;;;;;4975406;28;19997;-41
2024/03/30 11:11:20;;;;;;;;;;;;;;;;;;4975268;28;19972;-41
2024/03/30 11:13:46;;;;;;;;;;;;;;;;;;4975580;28;19921;-40
2024/03/30 11:16:12;;;;;;;;;;;;;;;;;;4975174;28;20383;-40
2024/03/30 11:18:38;;;;;;;;;;;;;;;;;;4975292;28;19953;-40
2024/03/30 11:21:04;;;;;;;;;;;;;;;;;;4975191;28;20005;-42
2024/03/30 11:23:29;;;;;;;;;;;;;;;;;;4975106;28;20428;-42
2024/03/30 11:25:56;;;;;;;;;;;;;;;;;;4975937;28;19987;-43
2024/03/30 11:28:21;;;;;;;;;;;;;;;;;;4975015;28;19910;-46
2024/03/30 11:30:47;;;;;;;;;;;;;;;;;;4979106;28;19922;-44
2024/03/30 11:33:13;;;;;;;;;;;;;;;;;;4992929;28;19980;-45
2024/03/30 11:35:39;;;;;;;;;;;;;;;;;;4994527;28;19948;-41
2024/03/30 11:38:06;;;;;;;;;;;;;;;;;;4994089;28;20382;-41
2024/03/30 11:40:32;;;;;;;;;;;;;;;;;;4994226;28;20561;-41
2024/03/30 11:42:58;;;;;;;;;;;;;;;;;;4993852;28;19921;-41
2024/03/30 11:45:23;;;;;;;;;;;;;;;;;;4992472;28;19922;-42
2024/03/30 11:47:50;;;;;;;;;;;;;;;;;;4982967;28;19917;-46
2024/03/30 11:50:16;;;;;;;;;;;;;;;;;;4994483;28;20008;-41
2024/03/30 11:52:41;;;;;;;;;;;;;;;;;;4994000;28;19956;-39
2024/03/30 11:55:07;;;;;;;;;;;;;;;;;;4992288;28;19914;-40
2024/03/30 11:57:33;;;;;;;;;;;;;;;;;;4976142;28;20276;-40
2024/03/30 11:59:59;;;;;;;;;;;;;;;;;;4993997;28;19910;-40
2024/03/30 12:02:25;;;;;;;;;;;;;;;;;;4982249;28;19969;-40
2024/03/30 12:04:51;;;;;;;;;;;;;;;;;;4974251;28;19910;-40
2024/03/30 12:07:17;;;;;;;;;;;;;;;;;;4974470;28;19916;-39
2024/03/30 12:09:43;;;;;;;;;;;;;;;;;;4978006;28;19921;-39
2024/03/30 12:12:09;;;;;;;;;;;;;;;;;;4977236;28;19922;-39
2024/03/30 12:14:35;;;;;;;;;;;;;;;;;;4973405;28;20008;-39
2024/03/30 12:17:00;;;;;;;;;;;;;;;;;;4972334;28;19921;-39
2024/03/30 12:19:28;;;;;;;;;;;;;;;;;;4972706;28;19922;-39
2024/03/30 12:21:54;;;;;;;;;;;;;;;;;;4976806;28;19918;-39
2024/03/30 12:24:20;;;;;;;;;;;;;;;;;;4975660;28;19922;-39
2024/03/30 12:26:45;;;;;;;;;;;;;;;;;;4972540;28;19918;-39
2024/03/30 12:29:11;;;;;;;;;;;;;;;;;;4972028;28;19918;-39
2024/03/30 12:31:37;;;;;;;;;;;;;;;;;;4970891;28;19918;-39
2024/03/30 12:34:03;;;;;;;;;;;;;;;;;;4969224;28;19953;-39
2024/03/30 12:36:29;;;;;;;;;;;;;;;;;;4975015;28;19914;-39
2024/03/30 12:38:55;;;;;;;;;;;;;;;;;;4972148;28;19992;-39
2024/03/30 12:41:21;;;;;;;;;;;;;;;;;;4972853;28;20311;-39
2024/03/30 12:43:47;;;;;;;;;;;;;;;;;;4973410;28;19914;-39
2024/03/30 12:46:12;;;;;;;;;;;;;;;;;;4970698;28;19949;-39
2024/03/30 12:48:38;;;;;;;;;;;;;;;;;;4972641;28;19914;-39
2024/03/30 12:51:04;;;;;;;;;;;;;;;;;;4970884;28;19921;-39
2024/03/30 12:53:30;;;;;;;;;;;;;;;;;;4973786;28;19921;-39
2024/03/30 12:55:56;;;;;;;;;;;;;;;;;;4973285;28;20009;-39
2024/03/30 12:58:22;;;;;;;;;;;;;;;;;;4973658;28;19940;-39
2024/03/30 13:00:48;;;;;;;;;;;;;;;;;;4973668;28;19925;-41
2024/03/30 13:03:14;;;;;;;;;;;;;;;;;;4981060;28;19975;-39
2024/03/30 13:05:41;;;;;;;;;;;;;;;;;;4989779;28;19999;-39
2024/03/30 13:08:10;;;;;;;;;;;;;;;;;;4972561;28;19917;-39
2024/03/30 13:10:40;;;;;;;;;;;;;;;;;;4972667;28;20313;-39
2024/03/30 13:13:06;;;;;;;;;;;;;;;;;;4973505;28;19962;-39
2024/03/30 13:15:32;;;;;;;;;;;;;;;;;;4971768;28;19922;-39
2024/03/30 13:17:58;;;;;;;;;;;;;;;;;;4967685;28;20334;-39
2024/03/30 13:20:29;;;;;;;;;;;;;;;;;;4964910;28;19922;-39
2024/03/30 13:22:55;;;;;;;;;;;;;;;;;;4972510;28;19918;-39
2024/03/30 13:25:21;;;;;;;;;;;;;;;;;;4968799;28;19925;-39
2024/03/30 13:27:47;;;;;;;;;;;;;;;;;;4975285;28;20344;-39
2024/03/30 13:30:13;;;;;;;;;;;;;;;;;;4966038;28;19921;-41
2024/03/30 13:32:39;;;;;;;;;;;;;;;;;;4971613;28;20406;-41
2024/03/30 13:35:07;;;;;;;;;;;;;;;;;;4971689;28;19910;-39
2024/03/30 13:37:33;;;;;;;;;;;;;;;;;;4972736;28;19914;-40
2024/03/30 13:39:59;;;;;;;;;;;;;;;;;;4985299;28;20295;-40
2024/03/30 13:42:25;;;;;;;;;;;;;;;;;;4991368;28;19914;-40
2024/03/30 13:44:51;;;;;;;;;;;;;;;;;;4986260;28;19910;-39
2024/03/30 13:47:17;;;;;;;;;;;;;;;;;;4954296;28;19910;-40
2024/03/30 13:49:42;;;;;;;;;;;;;;;;;;4970392;28;20319;-40
2024/03/30 13:52:08;;;;;;;;;;;;;;;;;;4971735;28;19910;-40
2024/03/30 13:54:36;;;;;;;;;;;;;;;;;;4954108;28;20449;-39
2024/03/30 13:57:02;;;;;;;;;;;;;;;;;;4973960;28;20169;-39
2024/03/30 13:59:29;;;;;;;;;;;;;;;;;;4975479;28;20028;-40
2024/03/30 14:01:54;;;;;;;;;;;;;;;;;;4974362;28;20057;-40
2024/03/30 14:04:20;;;;;;;;;;;;;;;;;;4976463;28;20395;-40
2024/03/30 14:06:46;;;;;;;;;;;;;;;;;;4973065;28;19920;-40
2024/03/30 14:09:12;;;;;;;;;;;;;;;;;;4971403;28;19923;-40
2024/03/30 14:11:38;;;;;;;;;;;;;;;;;;4972665;28;19928;-40
2024/03/30 14:14:04;;;;;;;;;;;;;;;;;;4986574;28;20284;-40
2024/03/30 14:16:30;;;;;;;;;;;;;;;;;;4954811;28;20016;-40
2024/03/30 14:18:56;;;;;;;;;;;;;;;;;;4970068;28;19914;-40
2024/03/30 14:21:22;;;;;;;;;;;;;;;;;;4974409;28;19922;-40
2024/03/30 14:23:48;;;;;;;;;;;;;;;;;;4980868;28;20353;-40
2024/03/30 14:26:13;;;;;;;;;;;;;;;;;;4975828;28;20043;-40
2024/03/30 14:28:39;;;;;;;;;;;;;;;;;;4971730;28;19992;-40
2024/03/30 14:31:05;;;;;;;;;;;;;;;;;;4970252;28;19929;-42
2024/03/30 14:33:31;;;;;;;;;;;;;;;;;;4977713;28;20416;-40
2024/03/30 14:35:57;;;;;;;;;;;;;;;;;;4973812;28;20394;-40
2024/03/30 14:38:24;;;;;;;;;;;;;;;;;;4957881;28;19925;-40
2024/03/30 14:40:50;;;;;;;;;;;;;;;;;;4970821;28;20376;-40
2024/03/30 14:43:15;;;;;;;;;;;;;;;;;;4972319;28;19922;-40
2024/03/30 14:45:41;;;;;;;;;;;;;;;;;;4972789;28;19922;-40
2024/03/30 14:48:07;;;;;;;;;;;;;;;;;;4969232;28;19922;-41
2024/03/30 14:50:33;;;;;;;;;;;;;;;;;;4971704;28;19961;-40
2024/03/30 14:53:00;;;;;;;;;;;;;;;;;;4973888;28;19914;-40
2024/03/30 14:55:26;;;;;;;;;;;;;;;;;;4977418;28;19914;-40
2024/03/30 14:57:52;;;;;;;;;;;;;;;;;;4972954;28;19972;-40
2024/03/30 15:00:18;;;;;;;;;;;;;;;;;;4973069;28;19921;-40
2024/03/30 15:02:44;;;;;;;;;;;;;;;;;;4955871;28;20428;-40
2024/03/30 15:05:10;;;;;;;;;;;;;;;;;;4972532;28;19918;-41
2024/03/30 15:07:36;;;;;;;;;;;;;;;;;;4971803;28;19921;-40
2024/03/30 15:10:02;;;;;;;;;;;;;;;;;;4972018;28;19918;-42
2024/03/30 15:12:27;;;;;;;;;;;;;;;;;;4972427;28;19968;-41
2024/03/30 15:14:53;;;;;;;;;;;;;;;;;;4975788;28;19915;-40
2024/03/30 15:17:19;;;;;;;;;;;;;;;;;;4972137;28;19937;-40
2024/03/30 15:19:45;;;;;;;;;;;;;;;;;;4972816;28;19994;-40
2024/03/30 15:22:11;;;;;;;;;;;;;;;;;;4972453;28;20008;-40
2024/03/30 15:24:37;;;;;;;;;;;;;;;;;;4973797;28;21918;-40
2024/03/30 15:27:03;;;;;;;;;;;;;;;;;;4974108;28;19942;-40
2024/03/30 15:29:29;;;;;;;;;;;;;;;;;;4972904;28;19914;-41
2024/03/30 15:32:15;;;;;;;;;;;;;;;;;;4973024;28;20489;-40
2024/03/30 15:34:41;;;;;;;;;;;;;;;;;;4954582;28;20373;-40
2024/03/30 15:37:07;;;;;;;;;;;;;;;;;;4974137;28;19921;-40
2024/03/30 15:39:33;;;;;;;;;;;;;;;;;;4972012;28;19914;-40
2024/03/30 15:41:58;;;;;;;;;;;;;;;;;;4971699;28;19957;-41
2024/03/30 15:44:24;;;;;;;;;;;;;;;;;;4971750;28;20012;-41
2024/03/30 15:46:52;;;;;;;;;;;;;;;;;;4971730;28;20410;-41
2024/03/30 15:49:18;;;;;;;;;;;;;;;;;;4975059;28;20013;-42
2024/03/30 15:51:44;;;;;;;;;;;;;;;;;;4971361;28;20342;-41
2024/03/30 15:54:10;;;;;;;;;;;;;;;;;;4972071;28;19915;-41
2024/03/30 15:56:36;;;;;;;;;;;;;;;;;;4974334;28;20324;-41
2024/03/30 15:59:02;;;;;;;;;;;;;;;;;;4984467;28;19914;-42
2024/03/30 16:01:28;;;;;;;;;;;;;;;;;;4978141;28;20518;-42
2024/03/30 16:03:54;;;;;;;;;;;;;;;;;;4975539;28;19914;-42
2024/03/30 16:06:19;;;;;;;;;;;;;;;;;;4971139;28;19937;-42
2024/03/30 16:08:45;;;;;;;;;;;;;;;;;;4954195;28;20004;-42
2024/03/30 16:11:11;;;;;;;;;;;;;;;;;;4956001;28;20054;-42
2024/03/30 16:13:37;;;;;;;;;;;;;;;;;;4969427;28;19920;-42
2024/03/30 16:16:03;;;;;;;;;;;;;;;;;;4970745;28;19918;-43
2024/03/30 16:18:29;;;;;;;;;;;;;;;;;;4970499;28;19968;-43
2024/03/30 16:20:56;;;;;;;;;;;;;;;;;;4972600;28;19921;-43
2024/03/30 16:23:21;;;;;;;;;;;;;;;;;;4974548;28;20430;-42
2024/03/30 16:25:47;;;;;;;;;;;;;;;;;;4964028;28;19946;-40
2024/03/30 16:28:13;;;;;;;;;;;;;;;;;;4971685;28;19921;-40
2024/03/30 16:30:39;;;;;;;;;;;;;;;;;;4972796;28;20413;-40
2024/03/30 16:33:05;;;;;;;;;;;;;;;;;;4976456;28;20019;-39
2024/03/30 16:35:31;;;;;;;;;;;;;;;;;;4977050;28;19914;-42
2024/03/30 16:37:57;;;;;;;;;;;;;;;;;;4972980;28;19914;-42
2024/03/30 16:40:23;;;;;;;;;;;;;;;;;;4974341;28;19921;-41
2024/03/30 16:42:49;;;;;;;;;;;;;;;;;;4978581;28;19980;-41
2024/03/30 16:45:15;;;;;;;;;;;;;;;;;;4970892;28;19918;-42
2024/03/30 16:47:41;;;;;;;;;;;;;;;;;;4970715;28;19914;-42
2024/03/30 16:50:07;;;;;;;;;;;;;;;;;;4974178;28;19918;-42
2024/03/30 16:52:33;;;;;;;;;;;;;;;;;;4971510;28;20005;-42
2024/03/30 16:54:59;;;;;;;;;;;;;;;;;;4974496;28;19920;-42
2024/03/30 16:57:24;;;;;;;;;;;;;;;;;;4976127;28;19914;-42
2024/03/30 16:59:50;;;;;;;;;;;;;;;;;;4973689;28;19914;-42
2024/03/30 17:02:16;;;;;;;;;;;;;;;;;;4973525;28;20008;-42
2024/03/30 17:04:44;;;;;;;;;;;;;;;;;;4987996;28;19922;-42
2024/03/30 17:07:10;;;;;;;;;;;;;;;;;;4983255;28;19953;-42
2024/03/30 17:09:35;;;;;;;;;;;;;;;;;;4971684;28;20344;-42
2024/03/30 17:12:01;;;;;;;;;;;;;;;;;;4971495;28;19964;-42
2024/03/30 17:14:27;;;;;;;;;;;;;;;;;;4956226;28;19914;-44
2024/03/30 17:16:53;;;;;;;;;;;;;;;;;;4974273;28;20040;-42
2024/03/30 17:19:19;;;;;;;;;;;;;;;;;;4970993;28;19925;-43
2024/03/30 17:21:45;;;;;;;;;;;;;;;;;;4969395;28;19914;-42
2024/03/30 17:24:11;;;;;;;;;;;;;;;;;;4969221;28;19914;-42
2024/03/30 17:26:38;;;;;;;;;;;;;;;;;;4972253;28;19976;-42
2024/03/30 17:29:06;;;;;;;;;;;;;;;;;;4974663;28;19911;-42
2024/03/30 17:31:34;;;;;;;;;;;;;;;;;;4979601;28;19922;-42
2024/03/30 17:34:00;;;;;;;;;;;;;;;;;;4974146;28;19916;-42
2024/03/30 17:36:26;;;;;;;;;;;;;;;;;;4955256;28;19914;-41
2024/03/30 17:38:52;;;;;;;;;;;;;;;;;;4970992;28;20384;-41
2024/03/30 17:41:18;;;;;;;;;;;;;;;;;;4967759;28;19926;-41
2024/03/30 17:43:44;;;;;;;;;;;;;;;;;;4968774;28;20012;-42
2024/03/30 17:46:11;;;;;;;;;;;;;;;;;;4951660;28;19957;-42
2024/03/30 17:48:37;;;;;;;;;;;;;;;;;;4969671;28;20396;-42
2024/03/30 17:51:03;;;;;;;;;;;;;;;;;;4968572;28;20000;-42
2024/03/30 17:53:29;;;;;;;;;;;;;;;;;;4974025;28;20009;-42
2024/03/30 17:55:55;;;;;;;;;;;;;;;;;;4971072;28;20380;-42
2024/03/30 17:58:20;;;;;;;;;;;;;;;;;;4953426;28;19921;-42
2024/03/30 18:00:46;;;;;;;;;;;;;;;;;;4953747;28;20280;-43
2024/03/30 18:03:12;;;;;;;;;;;;;;;;;;4970442;28;20402;-43
2024/03/30 18:05:38;;;;;;;;;;;;;;;;;;4969201;28;19925;-42
2024/03/30 18:08:04;;;;;;;;;;;;;;;;;;4970087;28;20303;-42
2024/03/30 18:10:30;;;;;;;;;;;;;;;;;;4969343;28;19954;-42
2024/03/30 18:12:56;;;;;;;;;;;;;;;;;;4970426;28;19944;-42
2024/03/30 18:15:22;;;;;;;;;;;;;;;;;;4967876;28;19929;-42
2024/03/30 18:17:48;;;;;;;;;;;;;;;;;;4950866;28;19914;-43
2024/03/30 18:20:13;;;;;;;;;;;;;;;;;;4969663;28;19914;-42
2024/03/30 18:22:39;;;;;;;;;;;;;;;;;;4969382;28;19918;-42
2024/03/30 18:25:06;;;;;;;;;;;;;;;;;;4970689;28;20001;-42
2024/03/30 18:27:31;;;;;;;;;;;;;;;;;;4971746;28;19914;-42
2024/03/30 18:29:57;;;;;;;;;;;;;;;;;;4980779;28;19968;-43
2024/03/30 18:32:23;;;;;;;;;;;;;;;;;;4977302;28;20303;-43
2024/03/30 18:34:49;;;;;;;;;;;;;;;;;;4970370;28;20008;-43
2024/03/30 18:37:15;;;;;;;;;;;;;;;;;;4952454;28;20289;-42
2024/03/30 18:39:41;;;;;;;;;;;;;;;;;;4967378;28;19918;-43
2024/03/30 18:42:07;;;;;;;;;;;;;;;;;;4971037;28;20395;-42
2024/03/30 18:44:33;;;;;;;;;;;;;;;;;;4973825;28;19914;-43
2024/03/30 18:46:59;;;;;;;;;;;;;;;;;;4973334;28;20004;-42
2024/03/30 18:49:24;;;;;;;;;;;;;;;;;;4973284;28;19918;-43
2024/03/30 18:51:50;;;;;;;;;;;;;;;;;;4972803;28;20276;-42
2024/03/30 18:54:16;;;;;;;;;;;;;;;;;;4973698;28;19917;-43
2024/03/30 18:56:42;;;;;;;;;;;;;;;;;;4971971;28;20354;-42
2024/03/30 18:59:09;;;;;;;;;;;;;;;;;;4972635;28;19914;-42
2024/03/30 19:01:35;;;;;;;;;;;;;;;;;;4968836;28;20309;-43
2024/03/30 19:04:01;;;;;;;;;;;;;;;;;;4971620;28;20390;-44
2024/03/30 19:06:27;;;;;;;;;;;;;;;;;;4952703;28;20008;-43
2024/03/30 19:08:53;;;;;;;;;;;;;;;;;;4969801;28;19918;-44
2024/03/30 19:11:19;;;;;;;;;;;;;;;;;;4971909;28;19914;-42
2024/03/30 19:13:46;;;;;;;;;;;;;;;;;;4972132;28;19914;-42
2024/03/30 19:16:12;;;;;;;;;;;;;;;;;;4970412;28;19918;-43
2024/03/30 19:18:38;;;;;;;;;;;;;;;;;;4972361;28;19918;-42
2024/03/30 19:21:04;;;;;;;;;;;;;;;;;;4969077;28;19918;-42
2024/03/30 19:23:30;;;;;;;;;;;;;;;;;;4970635;28;20466;-42
2024/03/30 19:25:56;;;;;;;;;;;;;;;;;;4973621;28;19960;-42
2024/03/30 19:28:21;;;;;;;;;;;;;;;;;;4971144;28;19925;-42
2024/03/30 19:30:47;;;;;;;;;;;;;;;;;;4969923;28;19918;-43
2024/03/30 19:33:13;;;;;;;;;;;;;;;;;;4989568;28;19968;-42
2024/03/30 19:35:39;;;;;;;;;;;;;;;;;;4971722;28;19957;-42
2024/03/30 19:38:05;;;;;;;;;;;;;;;;;;4972646;28;19914;-43
2024/03/30 19:40:31;;;;;;;;;;;;;;;;;;4971460;28;19918;-44
2024/03/30 19:42:57;;;;;;;;;;;;;;;;;;4971467;28;19922;-43
2024/03/30 19:45:23;;;;;;;;;;;;;;;;;;4972551;28;19992;-42
2024/03/30 19:47:48;;;;;;;;;;;;;;;;;;4971679;28;19914;-42
2024/03/30 19:50:14;;;;;;;;;;;;;;;;;;4973316;28;20265;-42
2024/03/30 19:52:40;;;;;;;;;;;;;;;;;;4971638;28;21250;-43
2024/03/30 19:55:06;;;;;;;;;;;;;;;;;;4970451;28;20435;-42
2024/03/30 19:57:32;;;;;;;;;;;;;;;;;;4970375;28;19925;-43
2024/03/30 19:59:58;;;;;;;;;;;;;;;;;;4973440;28;19917;-43
2024/03/30 20:02:25;;;;;;;;;;;;;;;;;;4972061;28;19978;-42
2024/03/30 20:04:51;;;;;;;;;;;;;;;;;;4971469;28;19921;-42
2024/03/30 20:07:17;;;;;;;;;;;;;;;;;;4974262;28;19922;-42
2024/03/30 20:09:44;;;;;;;;;;;;;;;;;;4975045;28;19914;-43
2024/03/30 20:12:10;;;;;;;;;;;;;;;;;;4972460;28;20013;-42
2024/03/30 20:14:36;;;;;;;;;;;;;;;;;;4971778;28;20046;-42
2024/03/30 20:17:02;;;;;;;;;;;;;;;;;;4972581;28;19914;-42
2024/03/30 20:19:28;;;;;;;;;;;;;;;;;;4971070;28;20588;-42
2024/03/30 20:21:53;;;;;;;;;;;;;;;;;;4971980;28;19961;-42
2024/03/30 20:24:19;;;;;;;;;;;;;;;;;;4972238;28;20288;-42
2024/03/30 20:26:45;;;;;;;;;;;;;;;;;;4954614;28;19914;-43
2024/03/30 20:29:11;;;;;;;;;;;;;;;;;;4971672;28;20340;-43
2024/03/30 20:31:37;;;;;;;;;;;;;;;;;;4970513;28;19914;-43
2024/03/30 20:34:03;;;;;;;;;;;;;;;;;;4980633;28;19921;-42
2024/03/30 20:36:29;;;;;;;;;;;;;;;;;;4981113;28;19918;-42
2024/03/30 20:38:55;;;;;;;;;;;;;;;;;;4971399;28;19914;-42
2024/03/30 20:41:21;;;;;;;;;;;;;;;;;;4972707;28;20001;-42
2024/03/30 20:43:49;;;;;;;;;;;;;;;;;;4976279;28;20475;-42
2024/03/30 20:46:14;;;;;;;;;;;;;;;;;;4972775;28;19917;-42
2024/03/30 20:48:40;;;;;;;;;;;;;;;;;;4970820;28;20307;-42
2024/03/30 20:51:06;;;;;;;;;;;;;;;;;;4971741;28;19918;-42
2024/03/30 20:53:32;;;;;;;;;;;;;;;;;;4971647;28;19918;-42
2024/03/30 20:55:58;;;;;;;;;;;;;;;;;;4971749;28;19915;-42
2024/03/30 20:58:24;;;;;;;;;;;;;;;;;;4971217;28;20012;-42
2024/03/30 21:00:50;;;;;;;;;;;;;;;;;;4972096;28;19921;-42
2024/03/30 21:03:16;;;;;;;;;;;;;;;;;;4972099;28;19919;-42
2024/03/30 21:05:42;;;;;;;;;;;;;;;;;;4971574;28;19910;-42
2024/03/30 21:08:08;;;;;;;;;;;;;;;;;;4971455;28;20001;-42
2024/03/30 21:10:34;;;;;;;;;;;;;;;;;;4973981;28;19914;-42
2024/03/30 21:13:00;;;;;;;;;;;;;;;;;;4962824;28;19914;-43
2024/03/30 21:15:28;;;;;;;;;;;;;;;;;;4970055;28;19921;-42
2024/03/30 21:17:54;;;;;;;;;;;;;;;;;;4953418;28;19922;-42
2024/03/30 21:20:20;;;;;;;;;;;;;;;;;;4972937;28;19937;-42
2024/03/30 21:22:46;;;;;;;;;;;;;;;;;;4969948;28;20015;-42
2024/03/30 21:25:12;;;;;;;;;;;;;;;;;;4971092;28;19925;-42
2024/03/30 21:27:38;;;;;;;;;;;;;;;;;;4953117;28;19918;-42
2024/03/30 21:30:04;;;;;;;;;;;;;;;;;;4970699;28;20392;-42
2024/03/30 21:32:30;;;;;;;;;;;;;;;;;;4970508;28;19914;-42
2024/03/30 21:34:56;;;;;;;;;;;;;;;;;;4970604;28;19921;-42
2024/03/30 21:37:22;;;;;;;;;;;;;;;;;;4969466;28;20374;-43
2024/03/30 21:39:48;;;;;;;;;;;;;;;;;;4976475;28;19964;-42
2024/03/30 21:42:14;;;;;;;;;;;;;;;;;;4977841;28;20390;-42
2024/03/30 21:44:40;;;;;;;;;;;;;;;;;;4991544;28;20391;-42
2024/03/30 21:47:05;;;;;;;;;;;;;;;;;;4992027;28;19956;-42
2024/03/30 21:49:31;;;;;;;;;;;;;;;;;;4974151;28;20001;-42
2024/03/30 21:51:57;;;;;;;;;;;;;;;;;;4972913;28;19914;-42
2024/03/30 21:54:23;;;;;;;;;;;;;;;;;;4971253;28;19910;-42
2024/03/30 21:56:51;;;;;;;;;;;;;;;;;;4973132;28;19914;-42
2024/03/30 21:59:16;;;;;;;;;;;;;;;;;;4971273;28;19917;-42
2024/03/30 22:01:42;;;;;;;;;;;;;;;;;;4954105;28;19918;-42
2024/03/30 22:04:08;;;;;;;;;;;;;;;;;;4970818;28;20450;-42
2024/03/30 22:06:34;;;;;;;;;;;;;;;;;;4972176;28;19921;-43
2024/03/30 22:09:02;;;;;;;;;;;;;;;;;;4953850;28;20380;-42
2024/03/30 22:11:28;;;;;;;;;;;;;;;;;;4970946;28;19915;-42
2024/03/30 22:13:56;;;;;;;;;;;;;;;;;;4968152;28;20217;-43
2024/03/30 22:16:22;;;;;;;;;;;;;;;;;;4981744;28;20005;-42
2024/03/30 22:18:48;;;;;;;;;;;;;;;;;;4994289;28;19910;-42
2024/03/30 22:21:14;;;;;;;;;;;;;;;;;;4994830;28;19910;-42
2024/03/30 22:23:40;;;;;;;;;;;;;;;;;;4995585;28;19969;-42
2024/03/30 22:26:06;;;;;;;;;;;;;;;;;;4995639;28;19909;-41
2024/03/30 22:28:32;;;;;;;;;;;;;;;;;;4995258;28;19918;-42
2024/03/30 22:30:58;;;;;;;;;;;;;;;;;;4995492;28;20335;-42
2024/03/30 22:33:24;;;;;;;;;;;;;;;;;;4995487;28;19910;-42
2024/03/30 22:35:50;;;;;;;;;;;;;;;;;;4995569;28;19956;-41
2024/03/30 22:38:16;;;;;;;;;;;;;;;;;;4995451;28;20280;-41
2024/03/30 22:40:42;;;;;;;;;;;;;;;;;;4995500;28;19921;-41